METAR Data
IDs: Format: Raw Decoded Include TAF

Data at: 0351 UTC 20 Oct 2018

PAII 200256Z AUTO 26010G17KT 10SM OVC033 08/03 A2937 RMK AO2 SLP949 6//// T00780033 53007 PNO $
PAII 200056Z AUTO 28016G24KT 10SM BKN026 OVC034 08/04 A2935 RMK AO2 SLP942 T00830044 PNO $
PAII 200053Z AUTO 27017G24KT 10SM BKN028 BKN034 09/04 A2935 RMK AO2 PNO $
PAII 192356Z AUTO 28015G22KT 10SM BKN024 OVC032 09/04 A2934 RMK AO2 SLP938 6//// T00890039 10100 20056 53002 PNO $
PAII 192256Z AUTO 28016G23KT 10SM BKN023 BKN029 09/05 A2933 RMK AO2 SLP936 T00940050 PNO $
PAII 192156Z AUTO 28016G21KT 10SM BKN017 BKN022 09/06 A2933 RMK AO2 SLP936 T00940056 PNO $
PAII 192111Z AUTO 29014G20KT 10SM BKN015 08/06 A2933 RMK AO2 PNO $
PAII 192104Z AUTO 29012G18KT 10SM SCT015 08/06 A2933 RMK AO2 PNO $
PAII 192056Z AUTO 29014G19KT 10SM BKN015 08/05 A2933 RMK AO2 SLP936 6//// T00830050 58002 PNO $
PAII 192007Z AUTO 29013G20KT 10SM BKN019 BKN025 08/06 A2934 RMK AO2 PNO $
PAII 191856Z AUTO 31008G15KT 10SM BKN110 08/06 A2934 RMK AO2 SLP938 T00780056 PNO $
PAII 191756Z AUTO 32005KT 10SM OVC100 06/03 A2934 RMK AO2 SLP938 6//// T00560033 10056 20044 56010 PNO $
PAII 191656Z AUTO 32007KT 10SM OVC090 04/04 A2934 RMK AO2 SLP938 T00440039 PNO $
PAII 191556Z AUTO 33005KT 10SM OVC090 04/04 A2935 RMK AO2 SLP942 T00440039 PNO $
PAII 191456Z AUTO 35005KT 10SM SCT075 04/04 A2937 RMK AO2 RAE17 SLP948 6//// T00440039 57025 PNO $
PAII 191356Z AUTO 36004KT 10SM -RA FEW042 OVC060 05/04 A2939 RMK AO2 SLP956 T00500044 PNO $
PAII 191256Z AUTO 02005KT 10SM -RA BKN044 OVC060 05/04 A2942 RMK AO2 RAB33 SLP965 T00500039 PNO $
PAII 191156Z AUTO 34005KT 10SM OVC060 04/03 A2944 RMK AO2 SLP973 6//// 7//// T00440033 10056 20033 56024 PNO $
PAII 191056Z AUTO 35004KT 10SM FEW050 04/03 A2946 RMK AO2 SLP981 T00440033 PNO $
PAII 190956Z AUTO 35004KT 10SM FEW080 04/03 A2949 RMK AO2 SLP989 T00440033 PNO $
PAII 190856Z AUTO 00000KT 10SM CLR 04/03 A2951 RMK AO2 SLP998 6//// T00390028 58017 PNO $
PAII 190756Z AUTO 07004KT 10SM CLR 04/03 A2953 RMK AO2 SLP004 T00390033 401110039 PNO $
PAII 190656Z AUTO 08004KT 10SM OVC070 05/04 A2955 RMK AO2 SLP010 T00500039 PNO $
PAII 190556Z AUTO 11006KT 10SM FEW070 06/05 A2957 RMK AO2 SLP015 6//// T00560050 10106 20056 58010 PNO $
PAII 190456Z AUTO 11007KT 10SM BKN055 BKN070 OVC090 07/06 A2958 RMK AO2 SLP019 T00720056 PNO $
PAII 190356Z AUTO 11007KT 10SM BKN060 OVC085 07/06 A2959 RMK AO2 SLP024 T00670056 PNO $
PAII 190156Z AUTO 13012KT 10SM -RA FEW039 SCT049 BKN075 09/07 A2961 RMK AO2 RAB41 SLP030 T00890067 PNO $
PAII 190046Z AUTO 13018G23KT 10SM FEW019 SCT026 OVC085 10/06 A2962 RMK AO2 PNO $
PAII 190038Z AUTO 12018G22KT 10SM SCT019 BKN027 OVC085 11/06 A2962 RMK AO2 PNO $
PAII 182356Z AUTO 12015KT 10SM FEW019 SCT100 10/06 A2962 RMK AO2 SLP034 6//// T01000061 10111 20078 58008 PNO $
PAII 182256Z AUTO 13017G24KT 10SM SCT100 11/06 A2964 RMK AO2 SLP039 T01060061 PNO $
PAII 182156Z AUTO 12019G26KT 10SM FEW013 09/06 A2964 RMK AO2 PK WND 12026/2155 SLP041 T00940061 PNO $
PAII 182108Z AUTO 12021G25KT 10SM SCT014 09/06 A2964 RMK AO2 PNO $
PAII 182056Z AUTO 12017G24KT 10SM BKN014 09/06 A2965 RMK AO2 PK WND 14027/2027 SLP042 6//// T00940061 50003 PNO $
PAII 181956Z AUTO 12016G22KT 10SM SCT090 08/06 A2965 RMK AO2 RAB21E32 SLP044 T00830061 PNO $
PAII 181856Z AUTO 13018G22KT 10SM FEW055 OVC095 08/06 A2964 RMK AO2 SLP042 T00780061 PNO $
PAII 181656Z AUTO 13011KT 10SM FEW045 OVC060 07/06 A2963 RMK AO2 SLP037 T00720061 PNO $
PAII 181556Z AUTO 11007KT 10SM BKN060 BKN075 OVC090 06/06 A2962 RMK AO2 SLP035 T00610056 PNO $